createdAt,value
2022-08-26T00:00:40.525Z,23.32
2022-08-26T00:03:03.727Z,23.25
2022-08-26T00:05:27.200Z,23.29
2022-08-26T00:07:49.984Z,23.28
2022-08-26T00:10:14.408Z,23.21
2022-08-26T00:12:37.785Z,23.25
2022-08-26T00:15:00.794Z,23.22
2022-08-26T00:17:24.189Z,23.18
2022-08-26T00:19:49.278Z,23.14
2022-08-26T00:22:20.240Z,23.08
2022-08-26T00:24:47.860Z,23.03
2022-08-26T00:27:10.716Z,23.03
2022-08-26T00:29:34.945Z,23.03
2022-08-26T00:32:01.488Z,22.97
2022-08-26T00:34:26.600Z,23.00
2022-08-26T00:36:49.335Z,22.99
2022-08-26T00:39:14.691Z,22.93
2022-08-26T00:41:41.359Z,22.89
2022-08-26T00:44:04.358Z,22.84
2022-08-26T00:46:34.098Z,22.84
2022-08-26T00:49:11.999Z,22.82
2022-08-26T00:51:40.207Z,22.86
2022-08-26T00:54:06.740Z,22.77
2022-08-26T00:56:38.246Z,22.76
2022-08-26T00:59:03.485Z,22.73
2022-08-26T01:01:28.283Z,22.67
2022-08-26T01:03:55.547Z,22.63
2022-08-26T01:06:19.060Z,22.66
2022-08-26T01:08:41.920Z,22.55
2022-08-26T01:11:05.517Z,22.55
2022-08-26T01:13:30.574Z,22.62
2022-08-26T01:15:56.713Z,22.51
2022-08-26T01:18:20.123Z,22.52
2022-08-26T01:20:42.816Z,22.45
2022-08-26T01:23:09.187Z,22.42
2022-08-26T01:25:35.059Z,22.43
2022-08-26T01:28:02.118Z,22.35
2022-08-26T01:30:28.066Z,22.36
2022-08-26T01:32:52.227Z,22.34
2022-08-26T01:35:14.953Z,22.29
2022-08-26T01:37:40.495Z,22.28
2022-08-26T01:40:06.055Z,22.29
2022-08-26T01:42:29.287Z,22.26
2022-08-26T01:44:57.691Z,22.25
2022-08-26T01:47:23.028Z,22.22
2022-08-26T01:49:48.027Z,22.16
2022-08-26T01:52:20.675Z,22.14
2022-08-26T01:54:46.397Z,22.11
2022-08-26T01:57:15.120Z,22.07
2022-08-26T01:59:38.552Z,22.05
2022-08-26T02:02:02.100Z,22.02
2022-08-26T02:04:36.373Z,21.97
2022-08-26T02:07:02.208Z,21.97
2022-08-26T02:09:25.685Z,21.93
2022-08-26T02:11:51.050Z,21.88
2022-08-26T02:14:19.456Z,21.87
2022-08-26T02:16:45.656Z,21.87
2022-08-26T02:19:18.683Z,21.88
2022-08-26T02:21:43.748Z,21.93
2022-08-26T02:24:13.077Z,21.84
2022-08-26T02:26:35.844Z,21.80
2022-08-26T02:29:05.300Z,21.86
2022-08-26T02:31:30.494Z,21.71
2022-08-26T02:33:53.294Z,21.60
2022-08-26T02:36:22.471Z,21.43
2022-08-26T02:38:46.217Z,21.46
2022-08-26T02:41:10.251Z,21.40
2022-08-26T02:43:33.555Z,21.38
2022-08-26T02:45:56.140Z,21.40
2022-08-26T02:48:21.470Z,21.43
2022-08-26T02:50:45.236Z,21.38
2022-08-26T02:53:08.466Z,21.32
2022-08-26T02:55:32.167Z,21.29
2022-08-26T02:57:55.832Z,21.26
2022-08-26T03:00:18.629Z,21.29
2022-08-26T03:02:41.284Z,21.32
2022-08-26T03:05:04.766Z,21.29
2022-08-26T03:07:27.588Z,21.25
2022-08-26T03:09:50.432Z,21.22
2022-08-26T03:12:14.277Z,21.26
2022-08-26T03:14:36.873Z,21.19
2022-08-26T03:16:59.602Z,21.22
2022-08-26T03:19:24.204Z,21.23
2022-08-26T03:21:47.481Z,21.26
2022-08-26T03:24:11.477Z,21.13
2022-08-26T03:26:34.031Z,21.12
2022-08-26T03:29:15.648Z,21.16
2022-08-26T03:31:39.442Z,21.09
2022-08-26T03:34:03.540Z,21.09
2022-08-26T03:36:26.760Z,21.05
2022-08-26T03:38:49.640Z,20.96
2022-08-26T03:41:12.434Z,20.85
2022-08-26T03:44:01.556Z,20.67
2022-08-26T03:46:24.769Z,20.57
2022-08-26T03:48:49.555Z,20.47
2022-08-26T03:51:18.334Z,20.43
2022-08-26T03:53:42.371Z,20.61
2022-08-26T03:56:06.617Z,20.57
2022-08-26T03:58:29.337Z,20.47
2022-08-26T04:00:55.574Z,20.48
2022-08-26T04:03:41.076Z,20.50
2022-08-26T04:06:03.987Z,20.67
2022-08-26T04:08:26.476Z,20.63
2022-08-26T04:10:50.766Z,20.57
2022-08-26T04:13:13.866Z,20.57
2022-08-26T04:15:36.692Z,20.57
2022-08-26T04:17:59.421Z,20.68
2022-08-26T04:22:58.519Z,20.85
2022-08-26T04:25:22.550Z,20.95
2022-08-26T04:27:46.989Z,20.96
2022-08-26T04:30:11.529Z,21.02
2022-08-26T04:32:34.516Z,21.18
2022-08-26T04:34:57.305Z,21.36
2022-08-26T04:37:20.632Z,21.40
2022-08-26T04:39:44.651Z,21.49
2022-08-26T04:42:08.043Z,21.50
2022-08-26T04:44:31.837Z,21.56
2022-08-26T04:46:54.881Z,21.63
2022-08-26T04:49:18.605Z,21.81
2022-08-26T04:51:41.402Z,21.93
2022-08-26T04:54:07.337Z,21.95
2022-08-26T04:56:34.068Z,22.02
2022-08-26T04:58:57.131Z,22.22
2022-08-26T05:01:21.108Z,22.28
2022-08-26T05:03:44.671Z,22.43
2022-08-26T05:06:07.541Z,22.48
2022-08-26T05:08:32.309Z,22.52
2022-08-26T05:10:56.392Z,22.62
2022-08-26T05:13:21.112Z,22.69
2022-08-26T05:15:45.283Z,22.73
2022-08-26T05:18:08.870Z,22.77
2022-08-26T05:20:35.155Z,22.86
2022-08-26T05:23:01.953Z,22.91
2022-08-26T05:25:24.512Z,23.06
2022-08-26T05:27:50.129Z,23.32
2022-08-26T05:30:13.057Z,24.02
2022-08-26T05:32:35.773Z,25.13
2022-08-26T05:34:59.577Z,26.09
2022-08-26T05:37:23.689Z,26.83
2022-08-26T05:39:51.153Z,26.98
2022-08-26T05:42:15.647Z,26.78
2022-08-26T05:44:53.957Z,26.53
2022-08-26T05:47:19.049Z,26.15
2022-08-26T05:49:43.756Z,26.06
2022-08-26T05:52:14.221Z,25.94
2022-08-26T05:54:39.620Z,26.03
2022-08-26T05:57:02.907Z,26.08
2022-08-26T05:59:27.020Z,25.98
2022-08-26T06:01:53.826Z,26.06
2022-08-26T06:04:20.184Z,26.06
2022-08-26T06:06:43.883Z,25.95
2022-08-26T06:09:11.396Z,25.91
2022-08-26T06:11:36.390Z,26.15
2022-08-26T06:14:03.814Z,26.26
2022-08-26T06:16:28.324Z,26.32
2022-08-26T06:18:53.459Z,26.51
2022-08-26T06:21:28.135Z,26.56
2022-08-26T06:24:11.848Z,26.53
2022-08-26T06:26:35.948Z,26.61
2022-08-26T06:28:59.969Z,26.53
2022-08-26T06:31:25.589Z,26.44
2022-08-26T06:33:48.706Z,26.43
2022-08-26T06:36:20.774Z,26.46
2022-08-26T06:38:43.846Z,26.36
2022-08-26T06:41:11.388Z,26.23
2022-08-26T06:43:35.217Z,26.19
2022-08-26T06:46:04.832Z,26.06
2022-08-26T06:48:27.732Z,26.19
2022-08-26T06:50:50.904Z,26.12
2022-08-26T06:53:14.472Z,26.35
2022-08-26T06:55:46.272Z,26.46
2022-08-26T06:58:09.607Z,26.54
2022-08-26T07:00:34.087Z,26.47
2022-08-26T07:02:56.823Z,26.49
2022-08-26T07:05:19.534Z,26.63
2022-08-26T07:07:42.224Z,26.65
2022-08-26T07:10:08.555Z,26.73
2022-08-26T07:12:31.149Z,26.90
2022-08-26T07:14:53.735Z,27.04
2022-08-26T07:17:16.673Z,27.02
2022-08-26T07:19:39.288Z,27.11
2022-08-26T07:22:06.952Z,26.84
2022-08-26T07:24:38.423Z,26.80
2022-08-26T07:27:05.484Z,26.86
2022-08-26T07:29:29.293Z,26.90
2022-08-26T07:31:52.055Z,26.80
2022-08-26T07:34:15.001Z,26.68
2022-08-26T07:36:38.987Z,26.81
2022-08-26T07:39:01.857Z,26.87
2022-08-26T07:41:25.791Z,26.86
2022-08-26T07:43:48.662Z,26.98
2022-08-26T07:46:18.408Z,26.84
2022-08-26T07:48:51.316Z,27.02
2022-08-26T07:51:15.540Z,27.35
2022-08-26T07:53:38.369Z,27.35
2022-08-26T07:56:01.164Z,27.15
2022-08-26T07:58:23.908Z,27.38
2022-08-26T08:00:47.504Z,27.45
2022-08-26T08:03:11.747Z,27.47
2022-08-26T08:05:34.664Z,27.42
2022-08-26T08:08:19.741Z,27.54
2022-08-26T08:10:40.198Z,27.54
2022-08-26T08:13:07.185Z,27.53
2022-08-26T08:15:35.508Z,27.67
2022-08-26T08:18:00.654Z,27.64
2022-08-26T08:20:24.460Z,27.90
2022-08-26T08:22:47.070Z,27.86
2022-08-26T08:25:11.282Z,27.96
2022-08-26T08:27:35.474Z,28.04
2022-08-26T08:29:58.250Z,28.12
2022-08-26T08:32:22.443Z,28.24
2022-08-26T08:34:46.912Z,28.34
2022-08-26T08:37:10.871Z,28.44
2022-08-26T08:39:33.711Z,28.58
2022-08-26T08:42:14.177Z,28.24
2022-08-26T08:44:40.935Z,28.38
2022-08-26T08:47:11.399Z,28.28
2022-08-26T08:49:34.637Z,28.44
2022-08-26T08:52:04.246Z,28.55
2022-08-26T08:54:28.229Z,28.69
2022-08-26T08:56:57.667Z,28.90
2022-08-26T08:59:25.297Z,29.07
2022-08-26T09:01:53.977Z,28.99
2022-08-26T09:04:38.132Z,29.14
2022-08-26T09:07:03.466Z,29.00
2022-08-26T09:09:38.555Z,29.17
2022-08-26T09:12:02.296Z,29.13
2022-08-26T09:14:25.992Z,29.27
2022-08-26T09:17:04.759Z,29.30
2022-08-26T09:19:48.272Z,29.28
2022-08-26T09:22:11.334Z,29.51
2022-08-26T09:24:39.619Z,29.71
2022-08-26T09:27:05.229Z,29.65
2022-08-26T09:29:31.243Z,29.51
2022-08-26T09:32:13.998Z,29.35
2022-08-26T09:34:37.833Z,29.50
2022-08-26T09:37:00.747Z,29.62
2022-08-26T09:39:30.017Z,29.50
2022-08-26T09:42:22.434Z,29.45
2022-08-26T09:44:54.125Z,29.41
2022-08-26T09:47:23.018Z,29.61
2022-08-26T09:49:57.875Z,29.65
2022-08-26T09:52:23.773Z,29.72
2022-08-26T09:55:02.372Z,29.66
2022-08-26T09:57:29.234Z,29.78
2022-08-26T09:59:52.497Z,29.93
2022-08-26T10:02:33.209Z,29.98
2022-08-26T10:04:57.733Z,29.99
2022-08-26T10:07:51.228Z,29.98
2022-08-26T10:10:45.706Z,30.05
2022-08-26T10:13:15.055Z,30.28
2022-08-26T10:15:54.250Z,30.40
2022-08-26T10:18:25.943Z,30.31
2022-08-26T10:21:04.328Z,30.57
2022-08-26T10:23:37.886Z,30.27
2022-08-26T10:26:18.044Z,30.34
2022-08-26T10:28:48.156Z,30.36
2022-08-26T10:31:28.497Z,30.30
2022-08-26T10:33:53.345Z,30.34
2022-08-26T10:37:05.083Z,30.53
2022-08-26T10:39:47.112Z,30.65
2022-08-26T10:42:33.444Z,30.68
2022-08-26T10:45:02.538Z,30.86
2022-08-26T10:47:35.273Z,31.02
2022-08-26T10:50:03.237Z,30.82
2022-08-26T10:52:47.775Z,30.76
2022-08-26T10:55:37.407Z,30.65
2022-08-26T10:58:13.874Z,30.79
2022-08-26T11:01:17.014Z,30.98
2022-08-26T11:04:04.221Z,31.09
2022-08-26T11:06:29.728Z,30.98
2022-08-26T11:08:57.929Z,31.06
2022-08-26T11:11:40.450Z,31.16
2022-08-26T11:14:29.349Z,31.34
2022-08-26T11:16:57.021Z,31.39
2022-08-26T11:20:00.724Z,31.29
2022-08-26T11:22:32.448Z,31.18
2022-08-26T11:24:55.118Z,31.22
2022-08-26T11:27:38.996Z,31.06
2022-08-26T11:30:07.613Z,30.88
2022-08-26T11:32:39.283Z,31.22
2022-08-26T11:35:05.592Z,31.39
2022-08-26T11:37:41.304Z,31.37
2022-08-26T11:40:09.379Z,31.33
2022-08-26T11:42:41.665Z,31.43
2022-08-26T11:45:16.001Z,31.31
2022-08-26T11:47:38.704Z,31.44
2022-08-26T11:50:10.048Z,31.53
2022-08-26T11:52:32.843Z,31.70
2022-08-26T11:55:01.775Z,31.85
2022-08-26T11:57:24.443Z,31.82
2022-08-26T11:59:47.607Z,31.74
2022-08-26T12:02:17.869Z,31.70
2022-08-26T12:04:46.326Z,31.80
2022-08-26T12:07:09.969Z,31.77
2022-08-26T12:09:35.023Z,31.89
2022-08-26T12:12:23.915Z,31.88
2022-08-26T12:14:47.965Z,31.92
2022-08-26T12:17:14.667Z,31.98
2022-08-26T12:19:38.378Z,32.04
2022-08-26T12:22:20.981Z,31.92
2022-08-26T12:24:51.147Z,32.22
2022-08-26T12:27:28.947Z,32.09
2022-08-26T12:30:02.576Z,31.76
2022-08-26T12:32:25.792Z,31.94
2022-08-26T12:34:49.058Z,32.06
2022-08-26T12:37:14.063Z,31.98
2022-08-26T12:39:40.245Z,31.91
2022-08-26T12:42:26.337Z,32.15
2022-08-26T12:44:53.905Z,32.32
2022-08-26T12:47:44.233Z,32.48
2022-08-26T12:50:13.203Z,32.56
2022-08-26T12:52:52.346Z,32.64
2022-08-26T12:55:45.345Z,32.87
2022-08-26T12:58:37.511Z,32.70
2022-08-26T13:01:09.173Z,32.67
2022-08-26T13:03:34.672Z,32.49
2022-08-26T13:06:31.330Z,32.52
2022-08-26T13:09:06.084Z,32.70
2022-08-26T13:11:30.462Z,32.15
2022-08-26T13:14:15.533Z,32.14
2022-08-26T13:16:47.654Z,31.89
2022-08-26T13:19:22.087Z,32.02
2022-08-26T13:21:50.739Z,32.05
2022-08-26T13:24:25.875Z,32.18
2022-08-26T13:26:49.451Z,31.89
2022-08-26T13:29:13.278Z,31.92
2022-08-26T13:31:36.943Z,31.94
2022-08-26T13:34:00.183Z,32.05
2022-08-26T13:36:23.674Z,32.19
2022-08-26T13:38:48.341Z,32.35
2022-08-26T13:41:14.876Z,32.46
2022-08-26T13:43:38.591Z,32.57
2022-08-26T13:46:01.984Z,32.62
2022-08-26T13:48:25.576Z,32.25
2022-08-26T13:50:48.505Z,32.36
2022-08-26T13:53:11.205Z,32.56
2022-08-26T13:55:34.000Z,32.70
2022-08-26T13:57:56.823Z,32.86
2022-08-26T14:00:20.446Z,32.80
2022-08-26T14:02:43.191Z,32.70
2022-08-26T14:05:06.588Z,32.63
2022-08-26T14:07:29.432Z,32.40
2022-08-26T14:09:52.191Z,32.48
2022-08-26T14:12:14.773Z,32.57
2022-08-26T14:14:37.328Z,32.49
2022-08-26T14:17:00.625Z,32.25
2022-08-26T14:19:24.439Z,32.06
2022-08-26T14:21:47.199Z,32.18
2022-08-26T14:24:11.666Z,32.22
2022-08-26T14:26:34.544Z,32.11
2022-08-26T14:29:02.673Z,32.15
2022-08-26T14:31:27.047Z,32.12
2022-08-26T14:33:49.856Z,32.28
2022-08-26T14:36:28.693Z,32.46
2022-08-26T14:38:52.260Z,32.67
2022-08-26T14:41:17.305Z,32.71
2022-08-26T14:43:48.777Z,32.70
2022-08-26T14:46:13.898Z,32.79
2022-08-26T14:48:36.477Z,32.67
2022-08-26T14:50:59.115Z,32.62
2022-08-26T14:53:40.757Z,32.39
2022-08-26T14:56:03.710Z,32.28
2022-08-26T14:58:33.816Z,32.19
2022-08-26T15:00:57.893Z,32.05
2022-08-26T15:03:23.615Z,31.89
2022-08-26T15:05:48.063Z,31.89
2022-08-26T15:08:11.208Z,32.25
2022-08-26T15:10:34.116Z,32.39
2022-08-26T15:12:56.631Z,32.52
2022-08-26T15:15:20.037Z,32.56
2022-08-26T15:17:43.336Z,32.56
2022-08-26T15:20:09.313Z,32.67
2022-08-26T15:22:32.066Z,32.66
2022-08-26T15:24:58.143Z,32.55
2022-08-26T15:27:20.956Z,32.56
2022-08-26T15:29:44.055Z,32.11
2022-08-26T15:32:06.693Z,32.15
2022-08-26T15:34:29.262Z,31.89
2022-08-26T15:36:55.034Z,32.12
2022-08-26T15:39:19.528Z,32.31
2022-08-26T15:41:42.164Z,32.31
2022-08-26T15:44:06.385Z,32.25
2022-08-26T15:46:29.324Z,32.14
2022-08-26T15:48:52.221Z,32.06
2022-08-26T15:51:24.559Z,31.82
2022-08-26T15:53:47.604Z,31.67
2022-08-26T15:56:10.338Z,31.43
2022-08-26T15:58:33.249Z,31.31
2022-08-26T16:00:58.874Z,31.29
2022-08-26T16:03:22.633Z,31.25
2022-08-26T16:05:46.534Z,31.30
2022-08-26T16:08:10.231Z,31.57
2022-08-26T16:10:35.933Z,31.63
2022-08-26T16:12:59.019Z,31.67
2022-08-26T16:15:22.063Z,31.66
2022-08-26T16:17:45.267Z,31.47
2022-08-26T16:20:08.951Z,31.29
2022-08-26T16:22:31.922Z,31.08
2022-08-26T16:25:01.501Z,30.95
2022-08-26T16:27:27.613Z,30.71
2022-08-26T16:29:50.712Z,30.49
2022-08-26T16:32:13.396Z,30.43
2022-08-26T16:34:36.237Z,30.40
2022-08-26T16:37:00.543Z,30.49
2022-08-26T16:39:23.105Z,30.61
2022-08-26T16:41:45.813Z,30.69
2022-08-26T16:44:08.983Z,30.58
2022-08-26T16:46:32.163Z,30.53
2022-08-26T16:48:57.171Z,30.37
2022-08-26T16:51:24.960Z,30.17
2022-08-26T16:53:47.754Z,30.10
2022-08-26T16:56:14.744Z,30.12
2022-08-26T16:58:37.492Z,30.13
2022-08-26T17:01:00.177Z,30.09
2022-08-26T17:03:22.731Z,29.98
2022-08-26T17:05:45.500Z,29.85
2022-08-26T17:08:08.209Z,29.73
2022-08-26T17:10:31.593Z,29.52
2022-08-26T17:12:54.938Z,29.42
2022-08-26T17:15:18.413Z,29.50
2022-08-26T17:17:41.759Z,29.41
2022-08-26T17:20:09.575Z,29.35
2022-08-26T17:22:34.620Z,29.28
2022-08-26T17:24:57.695Z,29.17
2022-08-26T17:27:20.430Z,29.03
2022-08-26T17:29:43.188Z,29.08
2022-08-26T17:32:05.902Z,29.15
2022-08-26T17:34:28.691Z,29.21
2022-08-26T17:36:51.841Z,29.18
2022-08-26T17:39:14.986Z,29.25
2022-08-26T17:41:38.876Z,29.31
2022-08-26T17:44:01.525Z,29.32
2022-08-26T17:46:24.648Z,29.23
2022-08-26T17:48:48.387Z,29.06
2022-08-26T17:51:13.711Z,28.97
2022-08-26T17:53:37.243Z,28.87
2022-08-26T17:56:00.105Z,28.86
2022-08-26T17:58:24.916Z,28.82
2022-08-26T18:00:50.535Z,28.79
2022-08-26T18:03:13.708Z,28.60
2022-08-26T18:05:36.292Z,28.49
2022-08-26T18:07:58.923Z,28.44
2022-08-26T18:10:22.345Z,28.27
2022-08-26T18:12:45.265Z,28.04
2022-08-26T18:15:09.842Z,28.00
2022-08-26T18:17:32.777Z,28.01
2022-08-26T18:19:55.557Z,28.10
2022-08-26T18:22:18.480Z,28.17
2022-08-26T18:24:41.415Z,28.19
2022-08-26T18:27:19.179Z,28.17
2022-08-26T18:29:45.302Z,28.18
2022-08-26T18:32:08.802Z,28.12
2022-08-26T18:34:31.675Z,28.08
2022-08-26T18:36:54.692Z,27.98
2022-08-26T18:39:19.259Z,27.98
2022-08-26T18:41:49.216Z,27.90
2022-08-26T18:44:14.094Z,27.94
2022-08-26T18:46:36.955Z,27.93
2022-08-26T18:48:59.834Z,27.80
2022-08-26T18:51:29.612Z,27.73
2022-08-26T18:53:53.197Z,27.76
2022-08-26T18:56:18.163Z,27.63
2022-08-26T18:58:41.522Z,27.64
2022-08-26T19:01:04.204Z,27.54
2022-08-26T19:03:28.691Z,27.49
2022-08-26T19:05:51.346Z,27.43
2022-08-26T19:08:14.124Z,27.35
2022-08-26T19:10:40.045Z,27.28
2022-08-26T19:13:03.324Z,27.16
2022-08-26T19:15:29.133Z,27.06
2022-08-26T19:17:51.735Z,26.97
2022-08-26T19:20:14.548Z,26.91
2022-08-26T19:22:37.416Z,26.92
2022-08-26T19:25:00.871Z,26.86
2022-08-26T19:27:23.504Z,27.05
2022-08-26T19:29:46.755Z,27.06
2022-08-26T19:32:09.318Z,26.90
2022-08-26T19:34:32.095Z,26.90
2022-08-26T19:36:56.932Z,26.92
2022-08-26T19:39:20.990Z,26.92
2022-08-26T19:41:44.196Z,26.91
2022-08-26T19:44:10.418Z,26.95
2022-08-26T19:46:33.099Z,26.68
2022-08-26T19:48:58.086Z,26.57
2022-08-26T19:51:26.739Z,26.51
2022-08-26T19:53:49.594Z,26.47
2022-08-26T19:56:13.141Z,26.44
2022-08-26T19:58:35.772Z,26.50
2022-08-26T20:00:58.351Z,26.32
2022-08-26T20:03:20.967Z,26.35
2022-08-26T20:05:43.489Z,26.39
2022-08-26T20:08:06.112Z,26.36
2022-08-26T20:10:29.036Z,26.32
2022-08-26T20:12:52.310Z,26.25
2022-08-26T20:15:15.338Z,26.41
2022-08-26T20:17:39.068Z,26.33
2022-08-26T20:20:33.413Z,26.32
2022-08-26T20:22:56.541Z,26.30
2022-08-26T20:25:20.040Z,26.22
2022-08-26T20:27:42.831Z,26.16
2022-08-26T20:30:07.436Z,26.11
2022-08-26T20:32:35.026Z,26.03
2022-08-26T20:34:58.040Z,26.01
2022-08-26T20:37:21.836Z,25.96
2022-08-26T20:39:45.369Z,25.91
2022-08-26T20:42:19.898Z,25.80
2022-08-26T20:44:43.239Z,25.73
2022-08-26T20:47:17.030Z,25.77
2022-08-26T20:49:39.807Z,25.81
2022-08-26T20:52:05.462Z,25.78
2022-08-26T20:54:28.744Z,25.74
2022-08-26T20:56:51.979Z,25.80
2022-08-26T20:59:16.897Z,25.70
2022-08-26T21:01:42.272Z,25.85
2022-08-26T21:04:08.765Z,25.96
2022-08-26T21:06:35.046Z,26.03
2022-08-26T21:08:57.733Z,26.01
2022-08-26T21:11:20.731Z,26.09
2022-08-26T21:14:03.873Z,26.11
2022-08-26T21:16:26.416Z,26.06
2022-08-26T21:18:50.079Z,26.02
2022-08-26T21:21:13.183Z,25.98
2022-08-26T21:23:36.666Z,26.01
2022-08-26T21:26:11.039Z,26.01
2022-08-26T21:28:39.895Z,26.09
2022-08-26T21:31:07.496Z,26.03
2022-08-26T21:33:30.442Z,26.02
2022-08-26T21:35:54.453Z,25.98
2022-08-26T21:38:17.165Z,25.96
2022-08-26T21:40:39.962Z,26.03
2022-08-26T21:43:02.654Z,25.95
2022-08-26T21:45:25.280Z,25.68
2022-08-26T21:47:47.969Z,25.78
2022-08-26T21:50:11.038Z,25.74
2022-08-26T21:52:34.076Z,25.74
2022-08-26T21:55:01.275Z,25.73
2022-08-26T21:57:23.928Z,25.63
2022-08-26T21:59:46.478Z,25.64
2022-08-26T22:02:09.159Z,25.61
2022-08-26T22:04:31.743Z,25.60
2022-08-26T22:06:57.528Z,25.47
2022-08-26T22:09:25.162Z,25.43
2022-08-26T22:11:48.169Z,25.33
2022-08-26T22:14:11.428Z,25.33
2022-08-26T22:16:34.422Z,25.26
2022-08-26T22:18:57.133Z,25.24
2022-08-26T22:21:23.801Z,25.31
2022-08-26T22:23:47.548Z,25.31
2022-08-26T22:26:12.105Z,25.24
2022-08-26T22:28:36.181Z,25.22
2022-08-26T22:30:59.475Z,25.16
2022-08-26T22:33:23.122Z,25.16
2022-08-26T22:35:48.301Z,25.15
2022-08-26T22:38:11.373Z,25.09
2022-08-26T22:40:35.487Z,25.03
2022-08-26T22:43:00.352Z,25.08
2022-08-26T22:45:23.079Z,25.06
2022-08-26T22:47:45.897Z,24.98
2022-08-26T22:50:09.268Z,24.90
2022-08-26T22:52:32.058Z,24.86
2022-08-26T22:54:55.025Z,24.78
2022-08-26T22:57:17.785Z,24.75
2022-08-26T22:59:41.033Z,24.73
2022-08-26T23:02:05.182Z,24.76
2022-08-26T23:04:30.960Z,24.76
2022-08-26T23:06:57.474Z,24.64
2022-08-26T23:09:21.250Z,24.67
2022-08-26T23:11:46.316Z,24.64
2022-08-26T23:14:08.872Z,24.54
2022-08-26T23:16:37.856Z,24.52
2022-08-26T23:19:02.882Z,24.42
2022-08-26T23:21:25.540Z,24.41
2022-08-26T23:23:48.263Z,24.40
2022-08-26T23:26:13.458Z,24.37
2022-08-26T23:28:39.728Z,24.38
2022-08-26T23:31:02.422Z,24.27
2022-08-26T23:33:45.267Z,24.13
2022-08-26T23:36:08.493Z,24.04
2022-08-26T23:38:31.860Z,24.04
2022-08-26T23:40:55.769Z,24.04
2022-08-26T23:43:18.284Z,23.99
2022-08-26T23:45:41.095Z,23.94
2022-08-26T23:48:05.993Z,23.90
2022-08-26T23:50:48.878Z,23.85
2022-08-26T23:53:19.314Z,23.89
2022-08-26T23:55:41.988Z,23.90
2022-08-26T23:58:06.156Z,23.90
